Time;durP1;ratioP1;P1;durP2;ratioP2;P2;SDS_P1;SDS_P2;PMS_P1;PMS_P2;Temp;Humidity;BMP_temperature;BMP_pressure;BME280_temperature;BME280_humidity;BME280_pressure;Samples;Min_cycle;Max_cycle;Signal;HPM_P1;HPM_P2
2023/08/08 00:00:16;;;;;;;2.13;1.13;;;17.30;59.90;;;;;;5006734;28;114585;-77
2023/08/08 00:02:43;;;;;;;3.33;1.10;;;17.30;60.00;;;;;;5008103;28;114242;-77
2023/08/08 00:05:10;;;;;;;2.17;1.48;;;17.30;60.30;;;;;;5007864;28;114439;-78
2023/08/08 00:07:37;;;;;;;2.72;1.33;;;17.30;60.10;;;;;;5006690;28;115423;-78
2023/08/08 00:10:05;;;;;;;2.47;1.25;;;17.40;59.90;;;;;;5006873;28;114603;-78
2023/08/08 00:12:32;;;;;;;1.73;0.98;;;17.40;59.80;;;;;;5006915;28;114198;-78
2023/08/08 00:14:59;;;;;;;2.30;1.13;;;17.30;59.90;;;;;;5006280;28;114514;-78
2023/08/08 00:17:26;;;;;;;1.73;1.08;;;17.20;59.90;;;;;;5005401;28;114983;-77
2023/08/08 00:19:53;;;;;;;2.40;1.00;;;17.20;60.40;;;;;;4988961;28;116033;-77
2023/08/08 00:22:20;;;;;;;2.05;1.17;;;17.20;60.40;;;;;;5007630;28;114407;-78
2023/08/08 00:24:47;;;;;;;3.85;1.48;;;17.30;60.30;;;;;;5007927;28;114240;-78
2023/08/08 00:27:14;;;;;;;2.60;1.20;;;17.40;60.00;;;;;;5006715;28;115111;-78
2023/08/08 00:29:41;;;;;;;1.65;1.02;;;17.40;59.80;;;;;;5006709;28;114703;-77
2023/08/08 00:32:08;;;;;;;1.80;0.98;;;17.40;60.00;;;;;;5005951;28;114222;-77
2023/08/08 00:34:36;;;;;;;2.47;1.30;;;17.40;60.00;;;;;;4990001;28;114444;-77
2023/08/08 00:37:03;;;;;;;3.67;1.40;;;17.60;59.80;;;;;;5004827;28;114988;-78
2023/08/08 00:39:30;;;;;;;2.97;1.65;;;17.60;59.60;;;;;;5005342;28;114727;-77
2023/08/08 00:41:57;;;;;;;4.68;1.20;;;17.60;59.20;;;;;;5007356;28;114167;-77
2023/08/08 00:44:25;;;;;;;5.65;1.67;;;17.70;59.30;;;;;;5007432;28;114348;-77
2023/08/08 00:46:52;;;;;;;3.88;1.00;;;17.70;59.00;;;;;;5004872;28;116250;-77
2023/08/08 00:49:20;;;;;;;1.80;1.17;;;17.70;59.20;;;;;;5005530;28;114567;-77
2023/08/08 00:51:47;;;;;;;2.95;1.10;;;17.70;58.90;;;;;;5005722;28;114430;-77
2023/08/08 00:54:14;;;;;;;1.52;0.90;;;17.70;59.00;;;;;;5005919;28;114515;-77
2023/08/08 00:56:41;;;;;;;2.40;1.30;;;17.70;59.20;;;;;;5005478;28;114877;-77
2023/08/08 00:59:08;;;;;;;2.20;1.10;;;17.80;58.70;;;;;;4989478;28;114903;-77
2023/08/08 01:01:36;;;;;;;2.42;1.40;;;17.80;58.80;;;;;;4989930;28;114282;-77
2023/08/08 01:04:06;;;;;;;2.30;1.20;;;17.80;58.10;;;;;;5006957;28;114501;-77
2023/08/08 01:06:57;;;;;;;3.72;1.45;;;17.70;58.70;;;;;;5005672;28;114896;-77
2023/08/08 01:09:37;;;;;;;2.15;1.30;;;17.70;58.10;;;;;;5006464;28;114646;-76
2023/08/08 01:12:05;;;;;;;2.90;1.50;;;17.70;58.60;;;;;;4989822;28;114293;-77
2023/08/08 01:14:33;;;;;;;2.78;0.90;;;17.70;57.90;;;;;;5006528;28;114334;-77
2023/08/08 01:17:00;;;;;;;3.50;1.25;;;17.70;58.70;;;;;;5004887;28;114839;-78
2023/08/08 01:19:28;;;;;;;2.15;1.17;;;17.70;58.30;;;;;;5005114;28;115326;-77
2023/08/08 01:21:58;;;;;;;1.55;0.90;;;17.70;58.50;;;;;;5006601;28;114024;-77
2023/08/08 01:24:28;;;;;;;3.33;1.45;;;17.70;58.30;;;;;;5005676;28;114406;-77
2023/08/08 01:27:00;;;;;;;2.55;1.30;;;17.60;58.10;;;;;;4988733;28;114919;-78
2023/08/08 01:29:27;;;;;;;2.70;1.20;;;17.60;58.40;;;;;;5005937;28;114607;-77
2023/08/08 01:31:55;;;;;;;3.10;1.27;;;17.40;57.80;;;;;;5007044;28;114325;-76
2023/08/08 01:34:22;;;;;;;2.03;1.20;;;17.30;58.40;;;;;;5006434;28;114537;-77
2023/08/08 01:37:19;;;;;;;3.67;1.55;;;17.30;58.20;;;;;;5003761;28;115077;-77
2023/08/08 01:39:47;;;;;;;2.35;1.30;;;17.40;58.00;;;;;;5004131;28;114777;-78
2023/08/08 01:42:14;;;;;;;3.63;1.40;;;17.20;58.70;;;;;;5005584;28;114196;-78
2023/08/08 01:44:41;;;;;;;2.53;1.30;;;17.20;58.60;;;;;;4989091;28;114716;-78
2023/08/08 01:47:08;;;;;;;2.15;1.10;;;17.20;58.30;;;;;;5004022;28;114866;-78
2023/08/08 01:49:36;;;;;;;3.30;1.15;;;17.20;58.80;;;;;;4988098;28;115628;-78
2023/08/08 01:52:03;;;;;;;3.40;1.30;;;17.20;58.80;;;;;;5006620;28;114384;-78
2023/08/08 01:54:30;;;;;;;2.90;1.60;;;17.30;59.00;;;;;;5006638;28;114434;-78
2023/08/08 01:56:57;;;;;;;3.65;1.25;;;17.30;57.90;;;;;;5004408;28;115238;-78
2023/08/08 01:59:24;;;;;;;4.40;1.60;;;17.30;58.40;;;;;;5004384;28;114738;-78
2023/08/08 02:01:51;;;;;;;2.88;1.13;;;17.30;58.40;;;;;;5005463;28;114324;-78
2023/08/08 02:04:19;;;;;;;3.40;1.40;;;17.30;58.60;;;;;;5006482;28;114702;-79
2023/08/08 02:06:46;;;;;;;6.40;1.83;;;17.30;58.70;;;;;;5005310;28;115080;-78
2023/08/08 02:09:15;;;;;;;2.88;1.60;;;17.30;57.90;;;;;;5006107;28;114640;-78
2023/08/08 02:11:42;;;;;;;4.45;1.25;;;17.30;57.00;;;;;;4988140;28;114307;-77
2023/08/08 02:14:09;;;;;;;3.03;1.45;;;17.20;58.10;;;;;;5006122;28;114293;-79
2023/08/08 02:16:36;;;;;;;2.65;1.27;;;17.20;58.60;;;;;;5003697;28;117268;-78
2023/08/08 02:19:03;;;;;;;3.00;1.33;;;17.20;58.70;;;;;;5005786;28;115071;-77
2023/08/08 02:21:31;;;;;;;3.72;1.77;;;17.20;58.10;;;;;;4989879;28;114229;-78
2023/08/08 02:23:58;;;;;;;3.72;1.50;;;17.30;57.70;;;;;;5008598;28;115068;-78
2023/08/08 02:26:25;;;;;;;4.80;1.67;;;17.20;57.60;;;;;;5007317;28;114909;-77
2023/08/08 02:28:52;;;;;;;2.22;1.33;;;17.20;58.20;;;;;;5007882;28;114649;-78
2023/08/08 02:31:20;;;;;;;5.78;1.92;;;17.30;58.50;;;;;;5009588;28;114356;-78
2023/08/08 02:33:50;;;;;;;3.28;1.52;;;17.30;57.30;;;;;;5007974;28;114680;-79
2023/08/08 02:36:17;;;;;;;6.00;1.20;;;17.20;57.50;;;;;;5006578;28;114883;-78
2023/08/08 02:38:45;;;;;;;3.42;1.52;;;17.30;58.20;;;;;;5006964;28;115322;-78
2023/08/08 02:41:12;;;;;;;3.38;1.52;;;17.30;58.00;;;;;;5008562;28;114226;-78
2023/08/08 02:43:39;;;;;;;3.22;1.33;;;17.40;57.60;;;;;;5008344;28;114379;-79
2023/08/08 02:46:06;;;;;;;3.60;1.55;;;17.40;57.80;;;;;;5006915;28;117386;-78
2023/08/08 02:48:33;;;;;;;3.70;1.42;;;17.40;57.50;;;;;;5008338;28;114777;-78
2023/08/08 02:51:00;;;;;;;3.30;1.85;;;17.40;57.80;;;;;;5007927;28;114297;-78
2023/08/08 02:53:27;;;;;;;6.15;1.60;;;17.30;56.80;;;;;;5008696;28;114341;-77
2023/08/08 02:55:54;;;;;;;3.67;1.90;;;17.30;56.60;;;;;;4990678;28;117816;-77
2023/08/08 02:58:22;;;;;;;3.45;1.40;;;17.30;56.70;;;;;;5007003;28;114535;-77
2023/08/08 03:00:49;;;;;;;2.90;1.55;;;17.40;57.80;;;;;;4990979;28;114320;-77
2023/08/08 03:03:17;;;;;;;3.92;1.65;;;17.40;57.80;;;;;;5008232;28;114390;-77
2023/08/08 03:05:46;;;;;;;4.07;1.88;;;17.40;56.60;;;;;;4973709;28;118012;-77
2023/08/08 03:08:16;;;;;;;3.85;1.75;;;17.40;56.10;;;;;;4990932;28;115029;-78
2023/08/08 03:10:43;;;;;;;4.15;1.80;;;17.30;56.80;;;;;;5007644;28;114517;-77
2023/08/08 03:13:11;;;;;;;3.05;1.50;;;17.40;57.40;;;;;;5007473;28;114456;-77
2023/08/08 03:15:38;;;;;;;4.93;1.25;;;17.40;57.30;;;;;;4991108;28;114958;-78
2023/08/08 03:18:06;;;;;;;3.63;1.70;;;17.50;57.30;;;;;;5009362;28;114717;-77
2023/08/08 03:20:34;;;;;;;6.63;1.77;;;17.50;57.10;;;;;;5011274;28;114237;-77
2023/08/08 03:23:01;;;;;;;3.40;1.42;;;17.50;57.00;;;;;;5007208;28;114441;-77
2023/08/08 03:25:29;;;;;;;4.75;1.75;;;17.50;57.20;;;;;;5006114;28;114572;-78
2023/08/08 03:27:56;;;;;;;3.63;1.52;;;17.60;57.10;;;;;;5008061;28;115662;-78
2023/08/08 03:30:23;;;;;;;3.30;1.20;;;17.60;56.00;;;;;;5010605;28;114033;-78
2023/08/08 03:32:50;;;;;;;5.28;1.67;;;17.60;56.90;;;;;;4992536;28;114369;-78
2023/08/08 03:35:18;;;;;;;3.70;1.30;;;17.70;56.70;;;;;;5006628;28;114844;-78
2023/08/08 03:37:46;;;;;;;4.47;1.70;;;17.70;56.90;;;;;;4989790;28;115066;-78
2023/08/08 03:40:14;;;;;;;3.78;1.70;;;17.70;55.90;;;;;;5007505;28;114081;-78
2023/08/08 03:42:43;;;;;;;3.35;1.33;;;17.70;55.80;;;;;;5008970;28;114255;-78
2023/08/08 03:45:10;;;;;;;3.03;1.88;;;17.70;56.30;;;;;;5006506;28;115228;-78
2023/08/08 03:47:37;;;;;;;4.00;1.90;;;17.70;55.70;;;;;;4989625;28;114594;-78
2023/08/08 03:50:06;;;;;;;3.50;1.40;;;17.70;55.50;;;;;;4989719;28;114453;-78
2023/08/08 03:52:35;;;;;;;4.95;2.03;;;17.70;56.20;;;;;;4991225;28;114667;-78
2023/08/08 03:55:03;;;;;;;3.38;1.63;;;17.70;55.30;;;;;;5008208;28;116084;-78
2023/08/08 03:57:30;;;;;;;4.53;2.10;;;17.60;55.80;;;;;;4989621;28;114578;-78
2023/08/08 03:59:57;;;;;;;4.93;2.42;;;17.70;56.30;;;;;;4990863;28;114352;-78
2023/08/08 04:02:25;;;;;;;3.97;2.00;;;17.70;55.80;;;;;;4990994;28;114376;-79
2023/08/08 04:04:53;;;;;;;3.47;2.38;;;17.70;56.20;;;;;;4990938;28;114877;-78
2023/08/08 04:07:20;;;;;;;3.72;2.20;;;17.70;55.40;;;;;;5006714;28;114775;-78
2023/08/08 04:09:48;;;;;;;4.65;2.00;;;17.80;55.70;;;;;;4990516;28;114444;-79
2023/08/08 04:12:15;;;;;;;4.43;1.92;;;17.80;56.00;;;;;;4990619;28;114300;-76
2023/08/08 04:14:42;;;;;;;3.20;1.90;;;17.90;55.80;;;;;;5005400;28;114954;-78
2023/08/08 04:17:09;;;;;;;3.53;2.13;;;17.80;55.70;;;;;;5005807;28;114811;-77
2023/08/08 04:19:36;;;;;;;6.13;2.45;;;17.80;55.10;;;;;;5007681;28;114072;-79
2023/08/08 04:22:04;;;;;;;2.88;1.77;;;17.80;55.00;;;;;;5007883;28;114283;-77
2023/08/08 04:24:31;;;;;;;3.45;1.70;;;17.80;55.40;;;;;;5007153;28;115273;-77
2023/08/08 04:26:58;;;;;;;2.92;1.83;;;17.80;54.70;;;;;;5005507;28;116948;-77
2023/08/08 04:29:25;;;;;;;3.92;1.75;;;17.70;55.70;;;;;;5009040;28;114214;-78
2023/08/08 04:31:52;;;;;;;5.70;1.80;;;17.70;55.50;;;;;;5007302;28;114325;-77
2023/08/08 04:34:19;;;;;;;4.68;1.70;;;17.70;55.70;;;;;;4989027;28;115275;-77
2023/08/08 04:36:46;;;;;;;2.83;1.80;;;17.70;55.40;;;;;;5006463;28;114605;-78
2023/08/08 04:39:13;;;;;;;4.05;1.80;;;17.70;55.50;;;;;;5007933;28;114432;-78
2023/08/08 04:41:40;;;;;;;4.80;2.05;;;17.80;55.60;;;;;;5007040;28;114303;-77
2023/08/08 04:44:07;;;;;;;3.75;1.90;;;17.80;55.60;;;;;;5004951;28;114942;-78
2023/08/08 04:46:34;;;;;;;4.63;2.17;;;17.70;55.60;;;;;;5006287;28;115976;-77
2023/08/08 04:49:02;;;;;;;4.13;1.67;;;17.70;54.70;;;;;;5007618;28;114030;-78
2023/08/08 04:51:29;;;;;;;3.65;1.70;;;17.70;55.30;;;;;;4989859;28;114279;-77
2023/08/08 04:53:56;;;;;;;2.50;1.45;;;17.90;54.90;;;;;;5005418;28;114988;-78
2023/08/08 04:56:23;;;;;;;4.72;1.90;;;17.90;55.00;;;;;;5005826;28;114781;-78
2023/08/08 04:58:50;;;;;;;3.10;1.60;;;17.90;54.30;;;;;;5007608;28;114304;-78
2023/08/08 05:01:20;;;;;;;3.63;1.80;;;17.90;55.00;;;;;;5007560;28;114198;-77
2023/08/08 05:03:48;;;;;;;4.28;2.03;;;17.90;54.10;;;;;;5006528;28;115346;-77
2023/08/08 05:06:15;;;;;;;4.30;1.77;;;17.90;53.70;;;;;;4989183;28;117956;-77
2023/08/08 05:08:42;;;;;;;6.13;2.00;;;17.80;53.80;;;;;;4989541;28;114249;-77
2023/08/08 05:11:09;;;;;;;4.50;1.83;;;17.80;53.80;;;;;;4989122;28;114340;-77
2023/08/08 05:13:36;;;;;;;4.30;1.50;;;17.80;54.40;;;;;;5006033;28;116052;-77
2023/08/08 05:16:04;;;;;;;5.07;1.67;;;18.00;54.60;;;;;;4989085;28;116789;-78
2023/08/08 05:18:31;;;;;;;4.05;1.60;;;18.20;53.60;;;;;;5005917;28;114458;-78
2023/08/08 05:20:58;;;;;;;3.08;1.63;;;18.30;53.50;;;;;;5007282;28;114584;-78
2023/08/08 05:23:25;;;;;;;3.47;1.80;;;18.40;53.50;;;;;;4988074;28;117794;-78
2023/08/08 05:25:52;;;;;;;4.50;1.90;;;18.70;52.00;;;;;;5005404;28;114556;-78
2023/08/08 05:28:20;;;;;;;4.25;1.70;;;18.80;51.50;;;;;;5006355;28;114057;-78
2023/08/08 05:30:47;;;;;;;3.60;2.05;;;18.80;50.60;;;;;;5005067;28;114679;-78
2023/08/08 05:33:14;;;;;;;4.63;1.80;;;18.80;49.80;;;;;;5005368;28;115505;-77
2023/08/08 05:35:41;;;;;;;4.15;1.88;;;18.80;50.40;;;;;;5006028;28;114650;-77
2023/08/08 05:38:08;;;;;;;4.68;2.28;;;18.90;50.60;;;;;;5008542;28;114375;-78
2023/08/08 05:40:36;;;;;;;3.60;1.90;;;19.00;50.20;;;;;;5009726;28;114124;-77
2023/08/08 05:43:03;;;;;;;4.05;2.25;;;19.10;50.30;;;;;;5005218;28;117987;-77
2023/08/08 05:45:31;;;;;;;5.68;2.30;;;19.30;49.80;;;;;;4989180;28;114767;-77
2023/08/08 05:48:00;;;;;;;4.75;2.97;;;19.40;49.50;;;;;;5005842;28;114383;-77
2023/08/08 05:50:28;;;;;;;4.75;1.60;;;19.50;49.60;;;;;;5009524;28;114254;-77
2023/08/08 05:52:55;;;;;;;6.07;1.70;;;19.60;49.00;;;;;;5007140;28;116199;-77
2023/08/08 05:55:22;;;;;;;4.28;1.60;;;19.80;49.00;;;;;;5005178;28;114847;-78
2023/08/08 05:57:49;;;;;;;4.90;1.80;;;19.80;48.10;;;;;;4988298;28;115840;-79
2023/08/08 06:00:16;;;;;;;5.20;1.85;;;19.90;48.50;;;;;;5006286;28;114257;-78
2023/08/08 06:02:43;;;;;;;5.28;2.17;;;20.00;47.50;;;;;;5004279;28;115016;-78
2023/08/08 06:05:11;;;;;;;4.28;2.13;;;20.00;47.40;;;;;;5005447;28;114874;-78
2023/08/08 06:07:39;;;;;;;7.30;3.53;;;20.00;47.80;;;;;;5005065;28;114393;-78
2023/08/08 06:10:08;;;;;;;4.72;1.83;;;20.10;47.90;;;;;;5006510;28;114473;-79
2023/08/08 06:12:35;;;;;;;4.65;1.98;;;20.20;47.70;;;;;;5003642;28;115856;-77
2023/08/08 06:15:03;;;;;;;3.47;1.90;;;20.40;47.10;;;;;;5005391;28;114577;-79
2023/08/08 06:17:31;;;;;;;5.15;1.88;;;20.60;46.60;;;;;;5005698;28;114151;-78
2023/08/08 06:19:58;;;;;;;4.90;2.17;;;20.70;46.30;;;;;;5006146;28;114274;-79
2023/08/08 06:22:25;;;;;;;4.75;1.90;;;20.80;46.30;;;;;;5004831;28;115540;-78
2023/08/08 06:24:52;;;;;;;3.97;1.80;;;20.90;45.90;;;;;;5004894;28;115286;-78
2023/08/08 06:27:19;;;;;;;4.45;2.45;;;21.00;45.30;;;;;;5006275;28;114500;-78
2023/08/08 06:29:46;;;;;;;4.45;2.10;;;21.00;45.10;;;;;;5006162;28;114278;-79
2023/08/08 06:32:13;;;;;;;4.22;1.83;;;21.10;44.80;;;;;;5003916;28;115180;-78
2023/08/08 06:34:40;;;;;;;4.05;1.60;;;21.10;44.20;;;;;;5005422;28;114803;-79
2023/08/08 06:37:07;;;;;;;3.13;1.90;;;21.20;44.30;;;;;;5005449;28;114246;-78
2023/08/08 06:39:34;;;;;;;4.82;2.00;;;21.20;44.30;;;;;;5005674;28;114402;-79
2023/08/08 06:42:02;;;;;;;5.55;2.20;;;21.30;44.10;;;;;;5003745;27;117018;-78
2023/08/08 06:44:43;;;;;;;5.20;1.90;;;21.30;44.40;;;;;;5003755;28;115049;-77
2023/08/08 06:47:11;;;;;;;4.22;1.90;;;21.40;43.70;;;;;;5004016;28;114356;-79
2023/08/08 06:49:38;;;;;;;5.50;1.70;;;21.40;43.80;;;;;;5009080;28;114187;-79
2023/08/08 06:52:05;;;;;;;4.15;2.00;;;21.50;43.80;;;;;;5005215;28;115461;-78
2023/08/08 06:54:33;;;;;;;5.10;1.92;;;21.50;43.60;;;;;;5004620;28;114616;-79
2023/08/08 06:57:01;;;;;;;4.25;2.00;;;21.50;43.80;;;;;;5004611;28;114266;-78
2023/08/08 06:59:29;;;;;;;5.70;2.00;;;21.60;43.50;;;;;;5004486;28;114378;-79
2023/08/08 07:01:56;;;;;;;4.95;2.38;;;21.60;43.70;;;;;;5004056;28;118103;-78
2023/08/08 07:04:23;;;;;;;3.88;1.92;;;21.60;42.80;;;;;;5005117;28;114406;-78
2023/08/08 07:06:50;;;;;;;4.05;1.83;;;21.60;43.30;;;;;;5007816;28;114063;-77
2023/08/08 07:09:18;;;;;;;3.92;2.03;;;21.50;43.50;;;;;;5007780;28;114203;-78
2023/08/08 07:11:45;;;;;;;5.43;1.77;;;21.50;43.40;;;;;;5006532;28;115008;-79
2023/08/08 07:14:12;;;;;;;5.47;2.03;;;21.40;43.20;;;;;;5007996;28;114791;-78
2023/08/08 07:16:40;;;;;;;2.90;1.60;;;21.30;43.20;;;;;;5008901;28;114238;-77
2023/08/08 07:19:07;;;;;;;4.50;1.95;;;21.30;43.40;;;;;;5008647;28;114272;-78
2023/08/08 07:21:34;;;;;;;4.00;1.90;;;21.30;43.20;;;;;;5007624;28;114992;-79
2023/08/08 07:24:02;;;;;;;4.47;1.98;;;21.30;43.00;;;;;;5007886;28;116340;-79
2023/08/08 07:26:30;;;;;;;5.35;2.45;;;21.20;42.90;;;;;;5008413;28;114450;-79
2023/08/08 07:28:57;;;;;;;4.78;1.58;;;21.20;42.40;;;;;;5008482;28;114153;-78
2023/08/08 07:31:24;;;;;;;4.72;2.00;;;21.10;43.10;;;;;;5007435;28;115137;-78
2023/08/08 07:33:51;;;;;;;5.53;1.95;;;21.20;43.10;;;;;;5006676;28;114637;-79
2023/08/08 07:36:18;;;;;;;7.32;2.05;;;21.20;43.20;;;;;;5008383;28;114230;-78
2023/08/08 07:38:45;;;;;;;6.72;1.90;;;21.20;43.00;;;;;;5008728;28;114273;-78
2023/08/08 07:41:12;;;;;;;4.63;1.77;;;21.20;42.90;;;;;;5008257;28;114422;-79
2023/08/08 07:43:39;;;;;;;5.35;1.88;;;21.30;42.80;;;;;;4989756;28;114691;-77
2023/08/08 07:46:06;;;;;;;5.32;1.80;;;21.30;42.60;;;;;;5008704;28;114271;-79
2023/08/08 07:48:34;;;;;;;4.30;2.08;;;21.30;42.40;;;;;;5007813;28;114159;-77
2023/08/08 07:51:01;;;;;;;3.50;1.70;;;21.10;43.70;;;;;;5007439;28;114909;-78
2023/08/08 07:53:28;;;;;;;5.50;2.22;;;20.90;43.70;;;;;;5006429;28;114851;-77
2023/08/08 07:55:55;;;;;;;4.43;1.90;;;20.80;44.00;;;;;;5006856;28;114411;-78
2023/08/08 07:58:25;;;;;;;5.35;2.15;;;20.70;44.80;;;;;;5008354;28;114348;-79
2023/08/08 08:00:53;;;;;;;6.22;2.40;;;20.60;44.90;;;;;;5008085;28;115036;-78
2023/08/08 08:03:20;;;;;;;4.22;2.20;;;20.60;45.20;;;;;;5008604;28;114715;-78
2023/08/08 08:05:47;;;;;;;6.40;2.42;;;20.60;44.80;;;;;;5009863;28;114077;-77
2023/08/08 08:08:14;;;;;;;5.13;1.95;;;20.50;44.90;;;;;;5007578;28;114558;-78
2023/08/08 08:10:42;;;;;;;5.18;2.00;;;20.40;44.80;;;;;;4990229;28;114982;-77
2023/08/08 08:13:10;;;;;;;4.85;2.08;;;20.30;45.10;;;;;;5008607;28;115441;-78
2023/08/08 08:15:38;;;;;;;5.78;2.15;;;20.10;45.10;;;;;;5010231;28;114174;-77
2023/08/08 08:18:05;;;;;;;5.28;2.22;;;20.00;46.00;;;;;;4991030;28;114204;-77
2023/08/08 08:20:32;;;;;;;4.25;2.00;;;20.00;46.20;;;;;;5005968;28;114316;-79
2023/08/08 08:22:59;;;;;;;7.28;2.13;;;20.00;46.30;;;;;;5007250;28;114643;-78
2023/08/08 08:25:27;;;;;;;4.35;1.80;;;20.00;46.00;;;;;;5007948;28;114242;-80
2023/08/08 08:27:54;;;;;;;6.07;2.53;;;20.00;46.10;;;;;;5008166;28;114323;-77
2023/08/08 08:30:23;;;;;;;5.68;2.00;;;20.00;46.50;;;;;;5005831;28;115056;-79
2023/08/08 08:32:50;;;;;;;5.63;2.25;;;20.00;46.60;;;;;;5007246;27;115466;-78
2023/08/08 08:35:17;;;;;;;4.57;2.15;;;19.90;46.70;;;;;;5006417;28;114072;-79
2023/08/08 08:37:44;;;;;;;4.38;1.98;;;19.90;47.10;;;;;;5006579;28;114531;-79
2023/08/08 08:40:11;;;;;;;3.88;2.10;;;19.90;46.30;;;;;;5007101;28;114906;-79
2023/08/08 08:42:39;;;;;;;4.57;1.98;;;19.90;46.60;;;;;;5006316;28;115414;-79
2023/08/08 08:45:07;;;;;;;4.13;2.08;;;20.00;46.90;;;;;;5006985;28;114075;-78
2023/08/08 08:47:34;;;;;;;4.72;2.20;;;20.10;46.90;;;;;;5006601;28;114191;-77
2023/08/08 08:50:03;;;;;;;4.90;2.30;;;20.20;46.40;;;;;;5005480;28;115120;-77
2023/08/08 08:52:31;;;;;;;6.20;2.10;;;20.30;45.20;;;;;;5006823;28;114580;-79
2023/08/08 08:54:58;;;;;;;4.30;2.20;;;20.30;45.90;;;;;;5006516;28;114396;-77
2023/08/08 08:57:25;;;;;;;5.68;2.30;;;20.30;46.00;;;;;;5006366;28;114115;-78
2023/08/08 08:59:53;;;;;;;4.68;2.30;;;20.30;45.60;;;;;;5006430;28;114667;-80
2023/08/08 09:02:20;;;;;;;5.28;2.40;;;20.30;44.50;;;;;;5006864;28;114626;-77
2023/08/08 09:04:48;;;;;;;8.10;2.25;;;20.30;44.60;;;;;;5006006;28;114330;-78
2023/08/08 09:07:15;;;;;;;5.63;2.20;;;20.30;44.80;;;;;;4989478;28;114763;-77
2023/08/08 09:09:42;;;;;;;6.07;2.50;;;20.40;44.80;;;;;;5004982;28;114921;-79
2023/08/08 09:12:10;;;;;;;3.90;1.58;;;20.60;44.90;;;;;;5005154;28;114959;-76
2023/08/08 09:14:39;;;;;;;5.35;1.85;;;20.70;44.50;;;;;;5005585;28;114597;-78
2023/08/08 09:17:11;;;;;;;6.20;2.00;;;20.80;44.10;;;;;;4989331;28;114403;-78
2023/08/08 09:19:38;;;;;;;4.40;2.20;;;20.80;43.00;;;;;;5005214;28;115430;-79
2023/08/08 09:22:06;;;;;;;5.15;2.00;;;20.80;43.80;;;;;;5006253;28;114713;-77
2023/08/08 09:24:33;;;;;;;4.72;2.03;;;20.90;43.80;;;;;;5005961;28;114122;-80
2023/08/08 09:27:00;;;;;;;4.78;1.90;;;21.00;44.10;;;;;;5005723;28;114844;-77
2023/08/08 09:29:27;;;;;;;5.68;1.90;;;21.00;43.90;;;;;;4988243;28;115017;-78
2023/08/08 09:31:54;;;;;;;3.90;2.10;;;21.00;43.60;;;;;;5004344;28;115921;-79
2023/08/08 09:34:24;;;;;;;4.55;2.20;;;20.90;43.30;;;;;;5004498;28;114170;-77
2023/08/08 09:36:52;;;;;;;3.33;1.95;;;20.80;43.50;;;;;;4972222;28;114312;-79
2023/08/08 09:39:19;;;;;;;4.95;2.20;;;20.80;42.90;;;;;;5004276;28;115071;-78
2023/08/08 09:41:47;;;;;;;3.10;1.95;;;20.80;44.30;;;;;;5005654;28;114477;-76
2023/08/08 09:44:14;;;;;;;4.05;1.60;;;20.90;43.00;;;;;;5006677;28;114265;-78
2023/08/08 09:46:41;;;;;;;4.15;1.98;;;20.80;42.50;;;;;;5005429;28;114416;-79
2023/08/08 09:49:12;;;;;;;4.07;2.15;;;20.80;42.70;;;;;;5004334;28;117421;-77
2023/08/08 09:51:39;;;;;;;4.53;1.98;;;20.80;42.80;;;;;;5006077;28;115119;-79
2023/08/08 09:54:06;;;;;;;3.90;1.83;;;20.70;43.10;;;;;;5005528;28;114157;-79
2023/08/08 09:56:34;;;;;;;6.68;2.10;;;20.70;43.50;;;;;;5005775;28;114466;-78
2023/08/08 09:59:01;;;;;;;4.85;2.05;;;20.60;43.40;;;;;;5004009;28;115352;-79
2023/08/08 10:01:28;;;;;;;4.80;2.40;;;20.60;44.10;;;;;;5004301;28;114578;-79
2023/08/08 10:03:55;;;;;;;4.45;2.00;;;20.50;43.40;;;;;;5006299;28;114656;-78
2023/08/08 10:06:23;;;;;;;3.88;1.90;;;20.50;43.50;;;;;;5005223;28;114364;-79
2023/08/08 10:08:50;;;;;;;3.70;1.67;;;20.50;43.70;;;;;;5005519;28;114901;-78
2023/08/08 10:11:18;;;;;;;4.47;2.20;;;20.40;43.90;;;;;;5004062;28;117130;-77
2023/08/08 10:13:49;;;;;;;3.33;2.10;;;20.30;43.80;;;;;;5006256;28;114188;-78
2023/08/08 10:16:17;;;;;;;4.45;2.03;;;20.30;43.90;;;;;;5005329;28;114209;-78
2023/08/08 10:18:46;;;;;;;5.53;1.98;;;20.20;43.50;;;;;;5004091;28;114936;-79
2023/08/08 10:21:13;;;;;;;3.95;2.10;;;20.20;43.40;;;;;;4987296;28;117566;-78
2023/08/08 10:23:44;;;;;;;3.72;2.00;;;20.20;42.70;;;;;;5007961;28;114111;-78
2023/08/08 10:26:19;;;;;;;4.05;1.90;;;20.20;43.30;;;;;;5009544;28;114250;-78
2023/08/08 10:28:52;;;;;;;;;;;20.10;43.70;;;;;;5005330;28;115121;-80
2023/08/08 10:31:20;;;;;;;4.75;2.10;;;20.10;44.20;;;;;;4988117;28;117578;-78
2023/08/08 10:33:47;;;;;;;4.25;2.42;;;20.20;44.60;;;;;;5006248;28;114120;-77
2023/08/08 10:36:14;;;;;;;3.72;1.70;;;20.30;44.20;;;;;;5005002;28;114380;-77
2023/08/08 10:38:46;;;;;;;5.13;2.10;;;20.50;43.70;;;;;;5005338;28;115114;-78
2023/08/08 10:41:15;;;;;;;2.85;1.67;;;20.60;43.40;;;;;;5006109;28;115294;-79
2023/08/08 10:43:53;;;;;;;2.72;1.75;;;20.50;42.40;;;;;;5007940;28;114172;-78
2023/08/08 10:46:30;;;;;;;4.03;2.03;;;20.50;42.60;;;;;;4992761;28;114287;-78
2023/08/08 10:49:02;;;;;;;3.38;2.00;;;20.50;42.90;;;;;;5008255;28;114944;-78
2023/08/08 10:51:39;;;;;;;4.30;1.90;;;20.40;42.90;;;;;;5007502;28;114682;-78
2023/08/08 10:54:06;;;;;;;3.10;1.80;;;20.30;43.80;;;;;;4992214;28;114155;-78
2023/08/08 10:56:35;;;;;;;3.38;1.92;;;20.30;43.10;;;;;;5009761;28;114385;-77
2023/08/08 10:59:13;;;;;;;3.58;1.80;;;20.30;43.30;;;;;;5007376;28;114835;-78
2023/08/08 11:01:40;;;;;;;3.72;2.33;;;20.20;43.20;;;;;;5007017;28;115482;-79
2023/08/08 11:04:07;;;;;;;4.82;2.10;;;20.10;43.30;;;;;;5009529;28;114037;-79
2023/08/08 11:06:34;;;;;;;3.58;1.85;;;20.00;43.10;;;;;;5009600;28;114359;-78
2023/08/08 11:09:02;;;;;;;3.72;2.00;;;20.00;43.80;;;;;;5009728;28;114595;-78
2023/08/08 11:11:35;;;;;;;3.00;1.80;;;20.10;43.90;;;;;;5008126;28;114728;-78
2023/08/08 11:14:10;;;;;;;3.22;1.80;;;20.10;43.60;;;;;;5007644;28;114564;-78
2023/08/08 11:16:38;;;;;;;4.10;1.90;;;20.10;44.40;;;;;;4991370;28;114295;-79
2023/08/08 11:19:05;;;;;;;3.25;1.60;;;20.00;44.00;;;;;;5008385;28;115024;-76
2023/08/08 11:21:40;;;;;;;4.65;1.70;;;20.00;44.60;;;;;;5008899;28;114992;-79
2023/08/08 11:24:08;;;;;;;3.63;1.75;;;20.00;44.60;;;;;;5009508;28;114238;-78
2023/08/08 11:26:35;;;;;;;3.45;1.50;;;20.10;44.40;;;;;;5008053;28;114208;-77
2023/08/08 11:29:03;;;;;;;3.97;1.70;;;20.20;44.20;;;;;;5007958;28;116151;-77
2023/08/08 11:31:31;;;;;;;3.65;1.80;;;20.20;44.40;;;;;;5008566;28;114656;-77
2023/08/08 11:33:59;;;;;;;4.20;1.98;;;20.30;44.20;;;;;;5008864;28;114328;-78
2023/08/08 11:36:29;;;;;;;3.15;1.75;;;20.40;43.70;;;;;;5006130;28;114258;-79
2023/08/08 11:38:57;;;;;;;3.88;1.60;;;20.40;42.90;;;;;;5006525;28;115085;-79
2023/08/08 11:41:25;;;;;;;3.28;1.73;;;20.40;43.20;;;;;;5007209;28;115253;-79
2023/08/08 11:43:53;;;;;;;4.22;1.77;;;20.50;43.50;;;;;;5007624;28;114168;-78
2023/08/08 11:46:24;;;;;;;3.97;1.60;;;20.50;42.70;;;;;;5008471;28;114485;-79
2023/08/08 11:48:51;;;;;;;3.65;1.80;;;20.50;42.60;;;;;;5007697;28;114970;-79
2023/08/08 11:51:18;;;;;;;4.45;2.08;;;20.40;43.20;;;;;;4990093;28;116419;-78
2023/08/08 11:53:50;;;;;;;3.38;1.90;;;20.40;43.20;;;;;;5007243;28;114415;-78
2023/08/08 11:56:21;;;;;;;5.10;2.42;;;20.40;43.20;;;;;;5007483;28;114588;-78
2023/08/08 11:58:51;;;;;;;3.28;1.80;;;20.30;43.50;;;;;;5008020;28;114620;-78
2023/08/08 12:01:25;;;;;;;3.15;1.80;;;20.20;44.10;;;;;;5005954;28;115891;-79
2023/08/08 12:03:53;;;;;;;3.83;2.10;;;20.20;43.30;;;;;;5006394;28;114200;-78
2023/08/08 12:06:22;;;;;;;3.38;1.85;;;20.10;43.70;;;;;;4990501;28;114381;-79
2023/08/08 12:08:50;;;;;;;3.50;1.73;;;20.00;44.00;;;;;;5007138;28;114928;-78
2023/08/08 12:11:17;;;;;;;3.97;1.95;;;20.00;44.80;;;;;;5006439;28;114712;-79
2023/08/08 12:13:51;;;;;;;;;;;20.00;44.50;;;;;;5007814;28;114291;-79
2023/08/08 12:16:18;;;;;;;4.85;2.00;;;20.00;44.70;;;;;;5006991;28;114643;-77
2023/08/08 12:18:45;;;;;;;4.05;1.88;;;19.90;44.10;;;;;;5007419;28;115447;-79
2023/08/08 12:21:12;;;;;;;4.95;1.77;;;19.90;43.30;;;;;;4989371;28;114997;-78
2023/08/08 12:23:39;;;;;;;4.50;1.80;;;19.80;44.30;;;;;;5007792;28;114355;-79
2023/08/08 12:26:07;;;;;;;3.55;2.05;;;19.80;44.20;;;;;;5007784;28;114441;-77
2023/08/08 12:28:34;;;;;;;4.50;1.83;;;19.90;44.20;;;;;;5005501;28;114960;-78
2023/08/08 12:31:01;;;;;;;4.22;1.90;;;19.90;43.70;;;;;;5006660;28;115190;-79
2023/08/08 12:33:28;;;;;;;3.88;1.80;;;20.00;43.60;;;;;;5007798;28;114312;-78
2023/08/08 12:35:55;;;;;;;4.60;1.90;;;20.10;44.00;;;;;;5006852;28;114320;-78
2023/08/08 12:38:23;;;;;;;3.83;1.80;;;20.10;43.50;;;;;;5006669;28;114821;-79
2023/08/08 12:40:50;;;;;;;2.70;1.60;;;20.20;43.40;;;;;;5006612;28;114823;-77